sensor_id;sensor_type;location;lat;lon;timestamp;pressure;altitude;pressure_sealevel;temperature;humidity
58973;BME280;44750;52.040;7.472;2023-09-18T00:02:31;100445.63;;;21.08;nan
58973;BME280;44750;52.040;7.472;2023-09-18T00:07:32;100457.31;;;21.03;nan
58973;BME280;44750;52.040;7.472;2023-09-18T00:12:32;100422.38;;;20.85;nan
58973;BME280;44750;52.040;7.472;2023-09-18T00:17:33;100427.22;;;20.65;nan
58973;BME280;44750;52.040;7.472;2023-09-18T00:22:41;100476.25;;;20.93;nan
58973;BME280;44750;52.040;7.472;2023-09-18T00:27:42;100477.06;;;20.75;nan
58973;BME280;44750;52.040;7.472;2023-09-18T00:32:43;100506.97;;;20.65;nan
58973;BME280;44750;52.040;7.472;2023-09-18T00:37:46;100526.72;;;20.55;nan
58973;BME280;44750;52.040;7.472;2023-09-18T00:42:46;100539.06;;;20.46;nan
58973;BME280;44750;52.040;7.472;2023-09-18T00:47:46;100593.56;;;20.55;nan
58973;BME280;44750;52.040;7.472;2023-09-18T00:52:47;100617.03;;;20.58;nan
58973;BME280;44750;52.040;7.472;2023-09-18T00:57:48;100617.41;;;20.62;nan
58973;BME280;44750;52.040;7.472;2023-09-18T01:02:48;100592.75;;;20.48;nan
58973;BME280;44750;52.040;7.472;2023-09-18T01:07:50;100594.53;;;20.36;nan
58973;BME280;44750;52.040;7.472;2023-09-18T01:13:08;100642.97;;;20.37;nan
58973;BME280;44750;52.040;7.472;2023-09-18T01:18:10;100635.63;;;20.24;nan
58973;BME280;44750;52.040;7.472;2023-09-18T01:23:14;100636.94;;;20.15;nan
58973;BME280;44750;52.040;7.472;2023-09-18T01:28:14;100660.38;;;20.17;nan
58973;BME280;44750;52.040;7.472;2023-09-18T01:33:15;100665.69;;;20.12;nan
58973;BME280;44750;52.040;7.472;2023-09-18T01:38:17;100693.16;;;20.12;nan
58973;BME280;44750;52.040;7.472;2023-09-18T01:43:18;100711.78;;;20.10;nan
58973;BME280;44750;52.040;7.472;2023-09-18T01:48:18;100716.66;;;20.01;nan
58973;BME280;44750;52.040;7.472;2023-09-18T01:53:18;100738.03;;;19.99;nan
58973;BME280;44750;52.040;7.472;2023-09-18T01:58:19;100746.88;;;20.01;nan
58973;BME280;44750;52.040;7.472;2023-09-18T02:03:20;100746.69;;;19.96;nan
58973;BME280;44750;52.040;7.472;2023-09-18T02:08:21;100769.72;;;19.88;nan
58973;BME280;44750;52.040;7.472;2023-09-18T02:13:21;100784.94;;;19.84;nan
58973;BME280;44750;52.040;7.472;2023-09-18T02:18:21;100814.31;;;19.91;nan
58973;BME280;44750;52.040;7.472;2023-09-18T02:23:21;100839.03;;;19.97;nan
58973;BME280;44750;52.040;7.472;2023-09-18T02:28:22;100857.66;;;20.02;nan
58973;BME280;44750;52.040;7.472;2023-09-18T02:33:26;100850.69;;;20.06;nan
58973;BME280;44750;52.040;7.472;2023-09-18T02:38:31;100850.84;;;20.11;nan
58973;BME280;44750;52.040;7.472;2023-09-18T02:43:32;100847.06;;;20.12;nan
58973;BME280;44750;52.040;7.472;2023-09-18T02:48:34;100821.72;;;20.03;nan
58973;BME280;44750;52.040;7.472;2023-09-18T02:53:46;100819.19;;;20.02;nan
58973;BME280;44750;52.040;7.472;2023-09-18T02:58:47;100798.66;;;19.91;nan
58973;BME280;44750;52.040;7.472;2023-09-18T03:03:51;100817.28;;;20.02;nan
58973;BME280;44750;52.040;7.472;2023-09-18T03:08:51;100816.63;;;20.07;nan
58973;BME280;44750;52.040;7.472;2023-09-18T03:13:54;100788.94;;;20.09;nan
58973;BME280;44750;52.040;7.472;2023-09-18T03:18:55;100763.81;;;20.05;nan
58973;BME280;44750;52.040;7.472;2023-09-18T03:23:55;100730.84;;;19.92;nan
58973;BME280;44750;52.040;7.472;2023-09-18T03:28:56;100735.69;;;19.96;nan
58973;BME280;44750;52.040;7.472;2023-09-18T03:33:56;100720.91;;;19.91;nan
58973;BME280;44750;52.040;7.472;2023-09-18T03:38:56;100703.59;;;19.77;nan
58973;BME280;44750;52.040;7.472;2023-09-18T03:43:57;100692.44;;;19.65;nan
58973;BME280;44750;52.040;7.472;2023-09-18T03:48:58;100706.78;;;19.67;nan
58973;BME280;44750;52.040;7.472;2023-09-18T03:53:58;100754.50;;;19.72;nan
58973;BME280;44750;52.040;7.472;2023-09-18T03:59:01;100767.63;;;19.84;nan
58973;BME280;44750;52.040;7.472;2023-09-18T04:04:04;100761.47;;;19.88;nan
58973;BME280;44750;52.040;7.472;2023-09-18T04:09:11;100766.34;;;20.00;nan
58973;BME280;44750;52.040;7.472;2023-09-18T04:14:29;100738.22;;;19.98;nan
58973;BME280;44750;52.040;7.472;2023-09-18T04:19:29;100736.72;;;20.15;nan
58973;BME280;44750;52.040;7.472;2023-09-18T04:24:32;100690.19;;;20.14;nan
58973;BME280;44750;52.040;7.472;2023-09-18T04:30:14;100669.00;;;20.28;nan
58973;BME280;44750;52.040;7.472;2023-09-18T04:35:08;100611.03;;;20.36;nan
58973;BME280;44750;52.040;7.472;2023-09-18T04:40:21;100566.16;;;20.42;nan
58973;BME280;44750;52.040;7.472;2023-09-18T04:45:22;100493.06;;;20.34;nan
58973;BME280;44750;52.040;7.472;2023-09-18T04:50:34;100471.34;;;20.51;nan
58973;BME280;44750;52.040;7.472;2023-09-18T05:06:11;100423.09;;;20.05;92.43
58973;BME280;44750;52.040;7.472;2023-09-18T05:11:11;100466.97;;;20.18;89.72
58973;BME280;44750;52.040;7.472;2023-09-18T05:16:12;100496.72;;;20.21;87.93
58973;BME280;44750;52.040;7.472;2023-09-18T05:26:31;100523.22;;;20.16;86.21
58973;BME280;44750;52.040;7.472;2023-09-18T05:31:32;100517.75;;;20.09;84.43
58973;BME280;44750;52.040;7.472;2023-09-18T05:36:44;100553.47;;;20.09;82.77
58973;BME280;44750;52.040;7.472;2023-09-18T05:41:47;100599.78;;;20.05;81.24
58973;BME280;44750;52.040;7.472;2023-09-18T05:46:48;100637.81;;;20.09;79.53
58973;BME280;44750;52.040;7.472;2023-09-18T05:51:56;100641.00;;;19.99;77.95
58973;BME280;44750;52.040;7.472;2023-09-18T05:56:56;100653.88;;;20.05;76.95
58973;BME280;44750;52.040;7.472;2023-09-18T06:01:58;100673.69;;;20.20;76.65
58973;BME280;44750;52.040;7.472;2023-09-18T06:07:01;100670.38;;;20.05;76.93
58973;BME280;44750;52.040;7.472;2023-09-18T06:12:06;100709.78;;;20.31;77.17
58973;BME280;44750;52.040;7.472;2023-09-18T06:17:06;100651.38;;;19.97;77.50
58973;BME280;44750;52.040;7.472;2023-09-18T06:22:07;100671.38;;;20.17;78.29
58973;BME280;44750;52.040;7.472;2023-09-18T06:27:07;100680.88;;;20.21;78.59
58973;BME280;44750;52.040;7.472;2023-09-18T06:32:07;100715.88;;;20.46;79.14
58973;BME280;44750;52.040;7.472;2023-09-18T06:37:14;100717.69;;;20.59;79.61
58973;BME280;44750;52.040;7.472;2023-09-18T06:42:19;100722.97;;;20.67;80.83
58973;BME280;44750;52.040;7.472;2023-09-18T06:47:25;100717.84;;;20.78;82.38
58973;BME280;44750;52.040;7.472;2023-09-18T06:52:29;100688.22;;;20.80;83.68
58973;BME280;44750;52.040;7.472;2023-09-18T06:57:30;100673.78;;;20.84;85.80
58973;BME280;44750;52.040;7.472;2023-09-18T07:02:36;100683.81;;;21.04;87.88
58973;BME280;44750;52.040;7.472;2023-09-18T07:07:36;100646.16;;;20.98;90.30
58973;BME280;44750;52.040;7.472;2023-09-18T07:12:36;100605.47;;;21.07;91.00
58973;BME280;44750;52.040;7.472;2023-09-18T07:17:36;100591.81;;;21.18;92.62
58973;BME280;44750;52.040;7.472;2023-09-18T07:22:37;100585.59;;;21.23;94.12
58973;BME280;44750;52.040;7.472;2023-09-18T07:27:37;100566.41;;;21.16;95.70
58973;BME280;44750;52.040;7.472;2023-09-18T07:32:45;100548.16;;;21.22;96.97
58973;BME280;44750;52.040;7.472;2023-09-18T07:37:46;100544.41;;;21.35;97.71
58973;BME280;44750;52.040;7.472;2023-09-18T07:42:46;100532.72;;;21.40;100.00
58973;BME280;44750;52.040;7.472;2023-09-18T07:47:52;100504.25;;;21.46;100.00
58973;BME280;44750;52.040;7.472;2023-09-18T07:52:58;100471.34;;;21.51;100.00
58973;BME280;44750;52.040;7.472;2023-09-18T07:57:58;100458.53;;;21.63;100.00
58973;BME280;44750;52.040;7.472;2023-09-18T08:02:58;100444.50;;;21.95;100.00
58973;BME280;44750;52.040;7.472;2023-09-18T08:08:02;100391.91;;;21.97;100.00
58973;BME280;44750;52.040;7.472;2023-09-18T08:13:04;100319.28;;;21.91;100.00
58973;BME280;44750;52.040;7.472;2023-09-18T08:18:04;100268.72;;;22.09;100.00
58973;BME280;44750;52.040;7.472;2023-09-18T08:23:04;100178.03;;;21.96;100.00
58973;BME280;44750;52.040;7.472;2023-09-18T08:28:05;100168.69;;;21.97;100.00
58973;BME280;44750;52.040;7.472;2023-09-18T08:33:14;100116.88;;;21.70;100.00
58973;BME280;44750;52.040;7.472;2023-09-18T08:38:15;100097.38;;;21.60;100.00
58973;BME280;44750;52.040;7.472;2023-09-18T08:43:19;100037.38;;;21.50;100.00
58973;BME280;44750;52.040;7.472;2023-09-18T08:48:23;100045.28;;;21.46;100.00
58973;BME280;44750;52.040;7.472;2023-09-18T08:53:23;99997.53;;;21.29;100.00
58973;BME280;44750;52.040;7.472;2023-09-18T08:58:25;99982.09;;;21.40;100.00
58973;BME280;44750;52.040;7.472;2023-09-18T09:03:27;99980.28;;;21.57;100.00
58973;BME280;44750;52.040;7.472;2023-09-18T09:08:28;99930.56;;;21.52;100.00
58973;BME280;44750;52.040;7.472;2023-09-18T09:13:28;99918.31;;;21.71;100.00
58973;BME280;44750;52.040;7.472;2023-09-18T09:18:29;99897.41;;;21.87;100.00
58973;BME280;44750;52.040;7.472;2023-09-18T09:23:49;99880.94;;;22.10;100.00
58973;BME280;44750;52.040;7.472;2023-09-18T09:29:01;99794.09;;;22.07;100.00
58973;BME280;44750;52.040;7.472;2023-09-18T09:34:24;99705.13;;;21.90;100.00
58973;BME280;44750;52.040;7.472;2023-09-18T09:39:26;99709.59;;;22.13;100.00
58973;BME280;44750;52.040;7.472;2023-09-18T09:44:28;99629.78;;;22.01;100.00
58973;BME280;44750;52.040;7.472;2023-09-18T09:49:30;99609.53;;;22.12;100.00
58973;BME280;44750;52.040;7.472;2023-09-18T09:54:46;99567.03;;;22.30;100.00
58973;BME280;44750;52.040;7.472;2023-09-18T09:59:46;99554.34;;;22.29;100.00
58973;BME280;44750;52.040;7.472;2023-09-18T10:04:49;99546.06;;;22.51;100.00
58973;BME280;44750;52.040;7.472;2023-09-18T10:09:50;99451.56;;;22.34;100.00
58973;BME280;44750;52.040;7.472;2023-09-18T10:14:50;99395.72;;;22.16;100.00
58973;BME280;44750;52.040;7.472;2023-09-18T10:20:05;99413.19;;;22.60;100.00
58973;BME280;44750;52.040;7.472;2023-09-18T10:25:14;99398.53;;;22.97;100.00
58973;BME280;44750;52.040;7.472;2023-09-18T10:30:18;99325.63;;;22.82;100.00
58973;BME280;44750;52.040;7.472;2023-09-18T10:35:19;99266.03;;;22.86;100.00
58973;BME280;44750;52.040;7.472;2023-09-18T10:40:21;99218.00;;;22.77;100.00
58973;BME280;44750;52.040;7.472;2023-09-18T10:45:27;99208.09;;;22.86;100.00
58973;BME280;44750;52.040;7.472;2023-09-18T10:50:29;99160.41;;;22.86;100.00
58973;BME280;44750;52.040;7.472;2023-09-18T10:55:34;99077.88;;;22.69;100.00
58973;BME280;44750;52.040;7.472;2023-09-18T11:00:50;99088.09;;;22.89;100.00
58973;BME280;44750;52.040;7.472;2023-09-18T11:06:07;99131.75;;;23.33;100.00
58973;BME280;44750;52.040;7.472;2023-09-18T11:11:12;99143.78;;;24.15;100.00
58973;BME280;44750;52.040;7.472;2023-09-18T11:21:30;98892.69;;;23.93;100.00
58973;BME280;44750;52.040;7.472;2023-09-18T11:26:35;98902.09;;;24.31;100.00
58973;BME280;44750;52.040;7.472;2023-09-18T11:31:52;98853.06;;;24.42;100.00
58973;BME280;44750;52.040;7.472;2023-09-18T11:36:52;98743.66;;;24.31;100.00
58973;BME280;44750;52.040;7.472;2023-09-18T11:42:06;98753.41;;;24.52;100.00
58973;BME280;44750;52.040;7.472;2023-09-18T11:47:09;98709.16;;;24.52;100.00
58973;BME280;44750;52.040;7.472;2023-09-18T11:52:10;98718.66;;;24.90;100.00
58973;BME280;44750;52.040;7.472;2023-09-18T11:57:10;98636.78;;;24.89;100.00
58973;BME280;44750;52.040;7.472;2023-09-18T12:02:11;98558.47;;;24.69;100.00
58973;BME280;44750;52.040;7.472;2023-09-18T12:07:25;98506.34;;;24.38;100.00
58973;BME280;44750;52.040;7.472;2023-09-18T12:12:30;98540.03;;;24.40;100.00
58973;BME280;44750;52.040;7.472;2023-09-18T12:17:34;98513.75;;;24.24;100.00
58973;BME280;44750;52.040;7.472;2023-09-18T12:22:34;98537.94;;;24.32;100.00
58973;BME280;44750;52.040;7.472;2023-09-18T12:27:36;98470.34;;;24.62;100.00
58973;BME280;44750;52.040;7.472;2023-09-18T12:32:46;98358.72;;;24.20;100.00
58973;BME280;44750;52.040;7.472;2023-09-18T12:37:46;98432.66;;;24.66;100.00
58973;BME280;44750;52.040;7.472;2023-09-18T12:42:47;98474.50;;;25.12;100.00
58973;BME280;44750;52.040;7.472;2023-09-18T12:47:55;98319.06;;;24.91;100.00
58973;BME280;44750;52.040;7.472;2023-09-18T12:53:09;98229.78;;;24.43;100.00
58973;BME280;44750;52.040;7.472;2023-09-18T12:58:12;98236.25;;;24.52;100.00
58973;BME280;44750;52.040;7.472;2023-09-18T13:03:13;98235.66;;;24.09;100.00
58973;BME280;44750;52.040;7.472;2023-09-18T13:08:13;98300.19;;;23.99;100.00
58973;BME280;44750;52.040;7.472;2023-09-18T13:13:18;98367.38;;;24.13;100.00
58973;BME280;44750;52.040;7.472;2023-09-18T13:18:18;98439.63;;;24.64;100.00
58973;BME280;44750;52.040;7.472;2023-09-18T13:23:19;98334.94;;;24.85;100.00
58973;BME280;44750;52.040;7.472;2023-09-18T13:28:19;98320.81;;;24.86;100.00
58973;BME280;44750;52.040;7.472;2023-09-18T13:33:20;98272.63;;;25.15;100.00
58973;BME280;44750;52.040;7.472;2023-09-18T13:38:20;98202.28;;;25.16;100.00
58973;BME280;44750;52.040;7.472;2023-09-18T13:43:22;98169.38;;;25.15;100.00
58973;BME280;44750;52.040;7.472;2023-09-18T13:48:22;98176.34;;;25.26;100.00
58973;BME280;44750;52.040;7.472;2023-09-18T13:53:22;98057.63;;;25.47;100.00
58973;BME280;44750;52.040;7.472;2023-09-18T13:58:23;97894.84;;;25.35;100.00
58973;BME280;44750;52.040;7.472;2023-09-18T14:03:23;97856.78;;;25.18;100.00
58973;BME280;44750;52.040;7.472;2023-09-18T14:08:23;97891.00;;;25.23;100.00
58973;BME280;44750;52.040;7.472;2023-09-18T14:13:23;97834.59;;;25.10;100.00
58973;BME280;44750;52.040;7.472;2023-09-18T14:18:24;97925.66;;;25.20;100.00
58973;BME280;44750;52.040;7.472;2023-09-18T14:23:24;97872.75;;;25.62;100.00
58973;BME280;44750;52.040;7.472;2023-09-18T14:28:24;97647.22;;;24.93;100.00
58973;BME280;44750;52.040;7.472;2023-09-18T14:33:24;97783.69;;;25.28;100.00
58973;BME280;44750;52.040;7.472;2023-09-18T14:38:25;97675.91;;;25.14;100.00
58973;BME280;44750;52.040;7.472;2023-09-18T14:43:26;97530.19;;;24.92;100.00
58973;BME280;44750;52.040;7.472;2023-09-18T14:48:26;97555.75;;;25.07;100.00
58973;BME280;44750;52.040;7.472;2023-09-18T14:53:27;97458.94;;;24.80;100.00
58973;BME280;44750;52.040;7.472;2023-09-18T14:58:27;97446.06;;;24.84;100.00
58973;BME280;44750;52.040;7.472;2023-09-18T15:03:27;97449.66;;;24.76;100.00
58973;BME280;44750;52.040;7.472;2023-09-18T15:08:27;97451.16;;;24.65;100.00
58973;BME280;44750;52.040;7.472;2023-09-18T15:13:28;97499.63;;;24.80;100.00
58973;BME280;44750;52.040;7.472;2023-09-18T15:18:28;97463.84;;;24.66;100.00
58973;BME280;44750;52.040;7.472;2023-09-18T15:23:28;97489.00;;;24.56;100.00
58973;BME280;44750;52.040;7.472;2023-09-18T15:28:28;97460.72;;;24.50;100.00
58973;BME280;44750;52.040;7.472;2023-09-18T15:33:29;97414.66;;;24.19;100.00
58973;BME280;44750;52.040;7.472;2023-09-18T15:38:32;97432.53;;;24.04;100.00
58973;BME280;44750;52.040;7.472;2023-09-18T15:43:32;97417.25;;;23.98;100.00
58973;BME280;44750;52.040;7.472;2023-09-18T15:48:32;97419.84;;;24.03;100.00
58973;BME280;44750;52.040;7.472;2023-09-18T15:53:33;97311.28;;;23.94;100.00
58973;BME280;44750;52.040;7.472;2023-09-18T15:58:34;97229.22;;;24.03;100.00
58973;BME280;44750;52.040;7.472;2023-09-18T16:03:34;97176.09;;;24.06;100.00
58973;BME280;44750;52.040;7.472;2023-09-18T16:08:35;97176.56;;;24.08;100.00
58973;BME280;44750;52.040;7.472;2023-09-18T16:13:40;97136.13;;;23.95;100.00
58973;BME280;44750;52.040;7.472;2023-09-18T16:18:40;97177.41;;;24.00;100.00
58973;BME280;44750;52.040;7.472;2023-09-18T16:23:41;97202.09;;;23.96;100.00
58973;BME280;44750;52.040;7.472;2023-09-18T16:28:41;97239.47;;;23.94;100.00
58973;BME280;44750;52.040;7.472;2023-09-18T16:33:43;97164.72;;;23.81;100.00
58973;BME280;44750;52.040;7.472;2023-09-18T16:38:43;97105.31;;;23.75;100.00
58973;BME280;44750;52.040;7.472;2023-09-18T16:43:44;97087.63;;;23.59;100.00
58973;BME280;44750;52.040;7.472;2023-09-18T16:48:45;97070.59;;;23.57;100.00
58973;BME280;44750;52.040;7.472;2023-09-18T16:53:45;97105.00;;;23.42;100.00
58973;BME280;44750;52.040;7.472;2023-09-18T16:58:45;97108.59;;;23.25;100.00
58973;BME280;44750;52.040;7.472;2023-09-18T17:03:45;97169.63;;;23.14;100.00
58973;BME280;44750;52.040;7.472;2023-09-18T17:08:46;97208.50;;;23.04;100.00
58973;BME280;44750;52.040;7.472;2023-09-18T17:13:46;97209.44;;;22.91;100.00
58973;BME280;44750;52.040;7.472;2023-09-18T17:18:47;97189.66;;;22.88;100.00
58973;BME280;44750;52.040;7.472;2023-09-18T17:23:49;97188.81;;;22.88;100.00
58973;BME280;44750;52.040;7.472;2023-09-18T17:28:50;97185.59;;;22.86;100.00
58973;BME280;44750;52.040;7.472;2023-09-18T17:33:50;97169.34;;;22.76;100.00
58973;BME280;44750;52.040;7.472;2023-09-18T17:38:52;97160.09;;;22.80;100.00
58973;BME280;44750;52.040;7.472;2023-09-18T17:43:52;97148.34;;;22.26;100.00
58973;BME280;44750;52.040;7.472;2023-09-18T17:48:52;97577.97;;;20.52;100.00
58973;BME280;44750;52.040;7.472;2023-09-18T17:53:54;97978.94;;;19.78;100.00
58973;BME280;44750;52.040;7.472;2023-09-18T17:58:54;98295.63;;;19.46;100.00
58973;BME280;44750;52.040;7.472;2023-09-18T18:03:54;98522.50;;;19.40;100.00
58973;BME280;44750;52.040;7.472;2023-09-18T18:08:55;98670.69;;;19.18;100.00
58973;BME280;44750;52.040;7.472;2023-09-18T18:13:55;98823.34;;;19.07;100.00
58973;BME280;44750;52.040;7.472;2023-09-18T18:19:00;98951.06;;;19.03;100.00
58973;BME280;44750;52.040;7.472;2023-09-18T18:24:00;99005.13;;;18.57;100.00
58973;BME280;44750;52.040;7.472;2023-09-18T18:29:00;99135.50;;;18.41;100.00
58973;BME280;44750;52.040;7.472;2023-09-18T18:34:01;99217.38;;;18.37;100.00
58973;BME280;44750;52.040;7.472;2023-09-18T18:39:02;99272.84;;;18.20;100.00
58973;BME280;44750;52.040;7.472;2023-09-18T18:44:02;99335.03;;;18.20;100.00
58973;BME280;44750;52.040;7.472;2023-09-18T18:49:03;99413.41;;;18.33;100.00
58973;BME280;44750;52.040;7.472;2023-09-18T18:54:03;99426.34;;;18.14;100.00
58973;BME280;44750;52.040;7.472;2023-09-18T18:59:03;99494.41;;;18.29;100.00
58973;BME280;44750;52.040;7.472;2023-09-18T19:04:05;99529.44;;;18.38;100.00
58973;BME280;44750;52.040;7.472;2023-09-18T19:09:06;99526.88;;;18.25;100.00
58973;BME280;44750;52.040;7.472;2023-09-18T19:14:06;99573.69;;;18.24;100.00
58973;BME280;44750;52.040;7.472;2023-09-18T19:19:06;99577.09;;;18.19;100.00
58973;BME280;44750;52.040;7.472;2023-09-18T19:24:06;99612.47;;;18.20;100.00
58973;BME280;44750;52.040;7.472;2023-09-18T19:29:07;99627.47;;;18.18;100.00
58973;BME280;44750;52.040;7.472;2023-09-18T19:34:07;99641.78;;;18.01;100.00
58973;BME280;44750;52.040;7.472;2023-09-18T19:39:08;99694.19;;;18.05;100.00
58973;BME280;44750;52.040;7.472;2023-09-18T19:44:09;99714.97;;;17.94;100.00
58973;BME280;44750;52.040;7.472;2023-09-18T19:49:10;99742.97;;;17.89;100.00
58973;BME280;44750;52.040;7.472;2023-09-18T19:54:10;99795.81;;;17.97;100.00
58973;BME280;44750;52.040;7.472;2023-09-18T19:59:10;99831.41;;;17.97;100.00
58973;BME280;44750;52.040;7.472;2023-09-18T20:04:10;99872.19;;;18.05;100.00
58973;BME280;44750;52.040;7.472;2023-09-18T20:09:11;99887.69;;;17.93;100.00
58973;BME280;44750;52.040;7.472;2023-09-18T20:14:11;99915.72;;;17.81;100.00
58973;BME280;44750;52.040;7.472;2023-09-18T20:19:11;99967.28;;;17.84;100.00
58973;BME280;44750;52.040;7.472;2023-09-18T20:24:12;99993.88;;;17.77;100.00
58973;BME280;44750;52.040;7.472;2023-09-18T20:29:13;100040.41;;;17.77;100.00
58973;BME280;44750;52.040;7.472;2023-09-18T20:34:14;100065.06;;;17.70;100.00
58973;BME280;44750;52.040;7.472;2023-09-18T20:39:15;100097.69;;;17.65;100.00
58973;BME280;44750;52.040;7.472;2023-09-18T20:44:16;100149.69;;;17.72;100.00
58973;BME280;44750;52.040;7.472;2023-09-18T20:49:16;100195.41;;;17.71;100.00
58973;BME280;44750;52.040;7.472;2023-09-18T20:54:16;100225.28;;;17.60;100.00
58973;BME280;44750;52.040;7.472;2023-09-18T20:59:17;100272.03;;;17.65;100.00
58973;BME280;44750;52.040;7.472;2023-09-18T21:04:17;100310.34;;;17.65;100.00
58973;BME280;44750;52.040;7.472;2023-09-18T21:09:17;100350.56;;;17.64;100.00
58973;BME280;44750;52.040;7.472;2023-09-18T21:14:17;100386.78;;;17.60;100.00
58973;BME280;44750;52.040;7.472;2023-09-18T21:19:17;100407.16;;;17.50;100.00
58973;BME280;44750;52.040;7.472;2023-09-18T21:24:18;100442.94;;;17.42;100.00
58973;BME280;44750;52.040;7.472;2023-09-18T21:29:18;100474.31;;;17.46;100.00
58973;BME280;44750;52.040;7.472;2023-09-18T21:34:18;100508.97;;;17.39;100.00
58973;BME280;44750;52.040;7.472;2023-09-18T21:39:18;100521.00;;;17.38;100.00
58973;BME280;44750;52.040;7.472;2023-09-18T21:44:19;100542.25;;;17.43;100.00
58973;BME280;44750;52.040;7.472;2023-09-18T21:49:19;100569.81;;;17.41;100.00
58973;BME280;44750;52.040;7.472;2023-09-18T21:54:19;100567.88;;;17.35;100.00
58973;BME280;44750;52.040;7.472;2023-09-18T21:59:19;100594.00;;;17.37;100.00
58973;BME280;44750;52.040;7.472;2023-09-18T22:04:20;100591.88;;;17.33;100.00
58973;BME280;44750;52.040;7.472;2023-09-18T22:09:20;100604.69;;;17.32;100.00
58973;BME280;44750;52.040;7.472;2023-09-18T22:14:20;100597.16;;;17.34;100.00
58973;BME280;44750;52.040;7.472;2023-09-18T22:19:21;100585.50;;;17.26;100.00
58973;BME280;44750;52.040;7.472;2023-09-18T22:24:21;100602.53;;;17.21;100.00
58973;BME280;44750;52.040;7.472;2023-09-18T22:29:22;100595.16;;;17.21;100.00
58973;BME280;44750;52.040;7.472;2023-09-18T22:34:22;100609.50;;;17.24;100.00
58973;BME280;44750;52.040;7.472;2023-09-18T22:56:14;100592.63;;;17.20;100.00
58973;BME280;44750;52.040;7.472;2023-09-18T23:01:15;100579.75;;;17.14;100.00
58973;BME280;44750;52.040;7.472;2023-09-18T23:06:16;100572.78;;;17.11;100.00
58973;BME280;44750;52.040;7.472;2023-09-18T23:11:16;100571.28;;;17.09;100.00
58973;BME280;44750;52.040;7.472;2023-09-18T23:16:16;100559.88;;;16.98;100.00
58973;BME280;44750;52.040;7.472;2023-09-18T23:21:18;100542.94;;;16.88;100.00
58973;BME280;44750;52.040;7.472;2023-09-18T23:26:18;100580.25;;;16.96;100.00
58973;BME280;44750;52.040;7.472;2023-09-18T23:31:18;100536.63;;;16.87;100.00
58973;BME280;44750;52.040;7.472;2023-09-18T23:36:18;100532.22;;;16.86;100.00
58973;BME280;44750;52.040;7.472;2023-09-18T23:41:19;100492.56;;;16.69;100.00
58973;BME280;44750;52.040;7.472;2023-09-18T23:46:19;100476.31;;;16.61;100.00
58973;BME280;44750;52.040;7.472;2023-09-18T23:51:20;100454.16;;;16.49;100.00
58973;BME280;44750;52.040;7.472;2023-09-18T23:56:20;100466.41;;;16.60;100.00
